^^
Saratoga-Weather Station Historical Data
Daily Summary for October 24, 2021 Units:  Both    English   Metric
Daily Weekly Monthly Yearly Custom
  High: Low: Average:
Temperature: 52.7 °F /  11.5 °C 35.2 °F /  1.8 °C 42.3 °F /  5.7 °C
Dew Point: 46.6 °F /  8.1 °C 34.2 °F /  1.2 °C 39.9 °F /  4.4 °C
Humidity: 97% 76% 92%
Wind Speed: 4.9mph /  7.9km/h - 0.4mph /  0.6km/h
Wind Gust: 9mph /  14.5km/h - -
Wind- - ESE
Pressure: 30.3 in /  1027.1 hPa 30.2 in /  1021.3 hPa -
Precipitation: 0 in /  0.0 mm    
Historical Graphs
 
 
Tabular Data for October 24, 2021
Time Temperature Dew Point Pressure Wind Wind Speed Wind Gust Humidity Rainfall Rate (Hourly) solar
00:03 40.6 °F /  4.8 °C 39.6 °F /  4.2 °C 30.3in /  1027.1hPa Calm     96% 0in /  0.0mm 0 W/m2
00:08 40.6 °F /  4.8 °C 39.6 °F /  4.2 °C 30.3in /  1027.1hPa Calm     96% 0in /  0.0mm 0 W/m2
00:13 40.6 °F /  4.8 °C 39.4 °F /  4.1 °C 30.3in /  1027.1hPa Calm     95% 0in /  0.0mm 0 W/m2
00:18 40.5 °F /  4.7 °C 39.2 °F /  4 °C 30.3in /  1027.1hPa Calm     95% 0in /  0.0mm 0 W/m2
00:23 40.5 °F /  4.7 °C 39.2 °F /  4 °C 30.3in /  1027.1hPa Calm     95% 0in /  0.0mm 0 W/m2
00:28 40.3 °F /  4.6 °C 39 °F /  3.9 °C 30.3in /  1026.8hPa Calm     95% 0in /  0.0mm 0 W/m2
00:33 40.3 °F /  4.6 °C 39 °F /  3.9 °C 30.3in /  1027.1hPa SSE 2mph /  3.2km/h 2mph /  3.2km/h 95% 0in /  0.0mm 0 W/m2
00:38 40.3 °F /  4.6 °C 39 °F /  3.9 °C 30.3in /  1027.1hPa Calm   1mph /  1.6km/h 95% 0in /  0.0mm 0 W/m2
00:43 40.3 °F /  4.6 °C 39 °F /  3.9 °C 30.3in /  1026.8hPa Calm   2mph /  3.2km/h 95% 0in /  0.0mm 0 W/m2
00:48 40.3 °F /  4.6 °C 39.2 °F /  4 °C 30.3in /  1026.8hPa Calm     96% 0in /  0.0mm 0 W/m2
00:53 40.1 °F /  4.5 °C 39 °F /  3.9 °C 30.3in /  1026.8hPa Calm     96% 0in /  0.0mm 0 W/m2
00:58 39.9 °F /  4.4 °C 38.8 °F /  3.8 °C 30.3in /  1026.8hPa SSE 0.9mph /  1.4km/h 2mph /  3.2km/h 96% 0in /  0.0mm 0 W/m2
01:03 39.9 °F /  4.4 °C 38.8 °F /  3.8 °C 30.3in /  1026.8hPa Calm   1mph /  1.6km/h 96% 0in /  0.0mm 0 W/m2
01:08 39.9 °F /  4.4 °C 38.7 °F /  3.7 °C 30.3in /  1026.8hPa Calm   2mph /  3.2km/h 95% 0in /  0.0mm 0 W/m2
01:13 39.7 °F /  4.3 °C 38.5 °F /  3.6 °C 30.3in /  1026.8hPa Calm     95% 0in /  0.0mm 0 W/m2
01:18 39.7 °F /  4.3 °C 38.7 °F /  3.7 °C 30.3in /  1026.8hPa Calm     96% 0in /  0.0mm 0 W/m2
01:23 39.6 °F /  4.2 °C 38.5 °F /  3.6 °C 30.3in /  1026.8hPa South 0.9mph /  1.4km/h 2mph /  3.2km/h 96% 0in /  0.0mm 0 W/m2
01:28 39.6 °F /  4.2 °C 38.5 °F /  3.6 °C 30.3in /  1026.8hPa South 0.9mph /  1.4km/h 2mph /  3.2km/h 96% 0in /  0.0mm 0 W/m2
01:33 39.6 °F /  4.2 °C 38.5 °F /  3.6 °C 30.3in /  1026.8hPa Calm   1mph /  1.6km/h 96% 0in /  0.0mm 0 W/m2
01:38 39.6 °F /  4.2 °C 38.5 °F /  3.6 °C 30.3in /  1026.8hPa Calm   2mph /  3.2km/h 96% 0in /  0.0mm 0 W/m2
01:43 39.6 °F /  4.2 °C 38.5 °F /  3.6 °C 30.3in /  1026.8hPa Calm     96% 0in /  0.0mm 0 W/m2
01:48 39.4 °F /  4.1 °C 38.3 °F /  3.5 °C 30.3in /  1026.8hPa Calm     96% 0in /  0.0mm 0 W/m2
01:53 39.4 °F /  4.1 °C 38.3 °F /  3.5 °C 30.3in /  1026.8hPa Calm     96% 0in /  0.0mm 0 W/m2
01:58 39.2 °F /  4 °C 38.1 °F /  3.4 °C 30.3in /  1026.8hPa Calm     96% 0in /  0.0mm 0 W/m2
02:03 39 °F /  3.9 °C 37.9 °F /  3.3 °C 30.3in /  1026.4hPa Calm     96% 0in /  0.0mm 0 W/m2
02:08 39 °F /  3.9 °C 37.9 °F /  3.3 °C 30.3in /  1026.4hPa Calm     96% 0in /  0.0mm 0 W/m2
02:13 38.8 °F /  3.8 °C 37.8 °F /  3.2 °C 30.3in /  1026.4hPa Calm     96% 0in /  0.0mm 0 W/m2
02:18 38.8 °F /  3.8 °C 37.8 °F /  3.2 °C 30.3in /  1026.4hPa Calm     96% 0in /  0.0mm 0 W/m2
02:23 38.8 °F /  3.8 °C 37.8 °F /  3.2 °C 30.3in /  1026.4hPa Calm     96% 0in /  0.0mm 0 W/m2
02:28 38.7 °F /  3.7 °C 37.6 °F /  3.1 °C 30.3in /  1026.4hPa Calm     96% 0in /  0.0mm 0 W/m2
02:33 38.7 °F /  3.7 °C 37.6 °F /  3.1 °C 30.3in /  1026.4hPa Calm     96% 0in /  0.0mm 0 W/m2
02:38 38.7 °F /  3.7 °C 37.6 °F /  3.1 °C 30.3in /  1026.4hPa Calm     96% 0in /  0.0mm 0 W/m2
02:43 38.7 °F /  3.7 °C 37.6 °F /  3.1 °C 30.3in /  1026.4hPa Calm     96% 0in /  0.0mm 0 W/m2
02:48 38.7 °F /  3.7 °C 37.6 °F /  3.1 °C 30.3in /  1026.4hPa Calm     96% 0in /  0.0mm 0 W/m2
02:54 38.5 °F /  3.6 °C 37.4 °F /  3 °C 30.3in /  1026.1hPa Calm     96% 0in /  0.0mm 0 W/m2
02:59 38.7 °F /  3.7 °C 37.6 °F /  3.1 °C 30.3in /  1026.1hPa Calm     96% 0in /  0.0mm 0 W/m2
03:04 38.5 °F /  3.6 °C 37.4 °F /  3 °C 30.3in /  1026.1hPa Calm   1mph /  1.6km/h 96% 0in /  0.0mm 0 W/m2
03:09 38.5 °F /  3.6 °C 37.4 °F /  3 °C 30.3in /  1026.1hPa Calm     96% 0in /  0.0mm 0 W/m2
03:14 38.5 °F /  3.6 °C 37.4 °F /  3 °C 30.3in /  1026.1hPa Calm   1mph /  1.6km/h 96% 0in /  0.0mm 0 W/m2
03:19 38.5 °F /  3.6 °C 37.4 °F /  3 °C 30.3in /  1026.1hPa Calm     96% 0in /  0.0mm 0 W/m2
03:24 38.3 °F /  3.5 °C 37.2 °F /  2.9 °C 30.3in /  1026.1hPa Calm     96% 0in /  0.0mm 0 W/m2
03:29 38.3 °F /  3.5 °C 37.2 °F /  2.9 °C 30.3in /  1026.1hPa Calm     96% 0in /  0.0mm 0 W/m2
03:34 38.1 °F /  3.4 °C 37 °F /  2.8 °C 30.3in /  1026.1hPa Calm     96% 0in /  0.0mm 0 W/m2
03:39 38.1 °F /  3.4 °C 37 °F /  2.8 °C 30.3in /  1025.7hPa Calm     96% 0in /  0.0mm 0 W/m2
03:44 38.1 °F /  3.4 °C 37 °F /  2.8 °C 30.3in /  1025.7hPa Calm     96% 0in /  0.0mm 0 W/m2
03:49 37.9 °F /  3.3 °C 36.9 °F /  2.7 °C 30.3in /  1025.7hPa Calm     96% 0in /  0.0mm 0 W/m2
03:54 37.9 °F /  3.3 °C 36.9 °F /  2.7 °C 30.3in /  1025.7hPa Calm     96% 0in /  0.0mm 0 W/m2
03:59 37.8 °F /  3.2 °C 36.7 °F /  2.6 °C 30.3in /  1025.7hPa Calm     96% 0in /  0.0mm 0 W/m2
04:04 37.8 °F /  3.2 °C 36.7 °F /  2.6 °C 30.3in /  1025.7hPa Calm     96% 0in /  0.0mm 0 W/m2
04:09 37.6 °F /  3.1 °C 36.5 °F /  2.5 °C 30.3in /  1025.4hPa Calm     96% 0in /  0.0mm 0 W/m2
04:14 37.6 °F /  3.1 °C 36.5 °F /  2.5 °C 30.3in /  1025.7hPa Calm     96% 0in /  0.0mm 0 W/m2
04:19 37.4 °F /  3 °C 36.3 °F /  2.4 °C 30.3in /  1025.4hPa Calm     96% 0in /  0.0mm 0 W/m2
04:24 37.2 °F /  2.9 °C 36.1 °F /  2.3 °C 30.3in /  1025.7hPa Calm     96% 0in /  0.0mm 0 W/m2
04:29 37.2 °F /  2.9 °C 36.1 °F /  2.3 °C 30.3in /  1025.7hPa Calm     96% 0in /  0.0mm 0 W/m2
04:34 37 °F /  2.8 °C 36 °F /  2.2 °C 30.3in /  1025.7hPa Calm     96% 0in /  0.0mm 0 W/m2
04:39 37 °F /  2.8 °C 36 °F /  2.2 °C 30.3in /  1025.7hPa Calm     96% 0in /  0.0mm 0 W/m2
04:44 37 °F /  2.8 °C 36 °F /  2.2 °C 30.3in /  1025.4hPa Calm     96% 0in /  0.0mm 0 W/m2
04:49 37 °F /  2.8 °C 36 °F /  2.2 °C 30.3in /  1025.4hPa Calm     96% 0in /  0.0mm 0 W/m2
04:54 37 °F /  2.8 °C 36 °F /  2.2 °C 30.3in /  1025.4hPa Calm     96% 0in /  0.0mm 0 W/m2
04:59 37 °F /  2.8 °C 36 °F /  2.2 °C 30.3in /  1025.4hPa Calm     96% 0in /  0.0mm 0 W/m2
05:04 37 °F /  2.8 °C 36 °F /  2.2 °C 30.3in /  1025.4hPa Calm     96% 0in /  0.0mm 0 W/m2
05:09 37 °F /  2.8 °C 36 °F /  2.2 °C 30.3in /  1025.4hPa Calm     96% 0in /  0.0mm 0 W/m2
05:14 37 °F /  2.8 °C 36 °F /  2.2 °C 30.3in /  1025.4hPa Calm     96% 0in /  0.0mm 0 W/m2
05:19 36.9 °F /  2.7 °C 35.8 °F /  2.1 °C 30.3in /  1025.4hPa Calm     96% 0in /  0.0mm 0 W/m2
05:24 36.9 °F /  2.7 °C 35.8 °F /  2.1 °C 30.3in /  1025.4hPa Calm     96% 0in /  0.0mm 0 W/m2
05:29 36.9 °F /  2.7 °C 35.8 °F /  2.1 °C 30.3in /  1025.4hPa Calm     96% 0in /  0.0mm 0 W/m2
05:34 36.9 °F /  2.7 °C 35.8 °F /  2.1 °C 30.3in /  1025.4hPa Calm     96% 0in /  0.0mm 0 W/m2
05:39 36.7 °F /  2.6 °C 35.6 °F /  2 °C 30.3in /  1025.4hPa Calm     96% 0in /  0.0mm 0 W/m2
05:44 36.7 °F /  2.6 °C 35.6 °F /  2 °C 30.3in /  1025.4hPa Calm     96% 0in /  0.0mm 0 W/m2
05:49 36.5 °F /  2.5 °C 35.4 °F /  1.9 °C 30.3in /  1025.4hPa Calm     96% 0in /  0.0mm 0 W/m2
05:54 36.3 °F /  2.4 °C 35.2 °F /  1.8 °C 30.3in /  1025.4hPa Calm     96% 0in /  0.0mm 0 W/m2
05:59 36.3 °F /  2.4 °C 35.2 °F /  1.8 °C 30.3in /  1025.1hPa Calm     96% 0in /  0.0mm 0 W/m2
06:04 36.3 °F /  2.4 °C 35.2 °F /  1.8 °C 30.3in /  1025.4hPa Calm     96% 0in /  0.0mm 0 W/m2
06:09 36.1 °F /  2.3 °C 35.1 °F /  1.7 °C 30.3in /  1025.1hPa Calm     96% 0in /  0.0mm 0 W/m2
06:14 36.1 °F /  2.3 °C 35.1 °F /  1.7 °C 30.3in /  1025.4hPa Calm     96% 0in /  0.0mm 0 W/m2
06:19 36 °F /  2.2 °C 34.9 °F /  1.6 °C 30.3in /  1025.4hPa Calm     96% 0in /  0.0mm 0 W/m2
06:24 35.8 °F /  2.1 °C 34.7 °F /  1.5 °C 30.3in /  1025.4hPa Calm     96% 0in /  0.0mm 0 W/m2
06:29 35.8 °F /  2.1 °C 34.7 °F /  1.5 °C 30.3in /  1025.1hPa Calm     96% 0in /  0.0mm 0 W/m2
06:34 35.6 °F /  2 °C 34.5 °F /  1.4 °C 30.3in /  1025.4hPa Calm     96% 0in /  0.0mm 0 W/m2
06:39 35.6 °F /  2 °C 34.5 °F /  1.4 °C 30.3in /  1025.1hPa Calm     96% 0in /  0.0mm 0 W/m2
06:44 35.6 °F /  2 °C 34.5 °F /  1.4 °C 30.3in /  1025.4hPa Calm     96% 0in /  0.0mm 0 W/m2
06:49 35.4 °F /  1.9 °C 34.3 °F /  1.3 °C 30.3in /  1025.1hPa Calm     96% 0in /  0.0mm 0 W/m2
06:54 35.2 °F /  1.8 °C 34.2 °F /  1.2 °C 30.3in /  1025.1hPa Calm     96% 0in /  0.0mm 0 W/m2
06:59 35.2 °F /  1.8 °C 34.2 °F /  1.2 °C 30.3in /  1025.1hPa Calm     96% 0in /  0.0mm 0 W/m2
07:04 35.2 °F /  1.8 °C 34.2 °F /  1.2 °C 30.3in /  1025.1hPa Calm     96% 0in /  0.0mm 0 W/m2
07:09 35.2 °F /  1.8 °C 34.2 °F /  1.2 °C 30.3in /  1025.1hPa Calm     96% 0in /  0.0mm 0 W/m2
07:14 35.2 °F /  1.8 °C 34.2 °F /  1.2 °C 30.3in /  1025.1hPa Calm     96% 0in /  0.0mm 0 W/m2
07:19 35.2 °F /  1.8 °C 34.2 °F /  1.2 °C 30.3in /  1025.1hPa Calm     96% 0in /  0.0mm 0 W/m2
07:24 35.2 °F /  1.8 °C 34.2 °F /  1.2 °C 30.3in /  1025.1hPa Calm     96% 0in /  0.0mm 0 W/m2
07:29 35.2 °F /  1.8 °C 34.2 °F /  1.2 °C 30.3in /  1025.1hPa Calm     96% 0in /  0.0mm 0 W/m2
07:34 35.4 °F /  1.9 °C 34.3 °F /  1.3 °C 30.3in /  1024.7hPa Calm     96% 0in /  0.0mm 0 W/m2
07:39 35.4 °F /  1.9 °C 34.3 °F /  1.3 °C 30.3in /  1024.7hPa Calm     96% 0in /  0.0mm 0 W/m2
07:44 35.4 °F /  1.9 °C 34.3 °F /  1.3 °C 30.3in /  1024.7hPa Calm     96% 0in /  0.0mm 0 W/m2
07:49 35.6 °F /  2 °C 34.5 °F /  1.4 °C 30.3in /  1024.7hPa Calm     96% 0in /  0.0mm 0 W/m2
07:54 35.8 °F /  2.1 °C 34.7 °F /  1.5 °C 30.3in /  1024.7hPa Calm     96% 0in /  0.0mm 0 W/m2
07:59 36 °F /  2.2 °C 35.2 °F /  1.8 °C 30.3in /  1024.7hPa Calm     97% 0in /  0.0mm 0 W/m2
08:04 36 °F /  2.2 °C 35.2 °F /  1.8 °C 30.3in /  1024.7hPa Calm     97% 0in /  0.0mm 0 W/m2
08:09 36 °F /  2.2 °C 35.2 °F /  1.8 °C 30.3in /  1024.7hPa Calm     97% 0in /  0.0mm 0 W/m2
08:14 36 °F /  2.2 °C 35.2 °F /  1.8 °C 30.3in /  1024.7hPa Calm     97% 0in /  0.0mm 5 W/m2
08:19 35.8 °F /  2.1 °C 34.7 °F /  1.5 °C 30.3in /  1024.7hPa Calm     96% 0in /  0.0mm 7 W/m2
08:24 36 °F /  2.2 °C 35.2 °F /  1.8 °C 30.3in /  1024.7hPa Calm     97% 0in /  0.0mm 9 W/m2
08:29 36.1 °F /  2.3 °C 35.4 °F /  1.9 °C 30.3in /  1024.7hPa Calm   1mph /  1.6km/h 97% 0in /  0.0mm 11 W/m2
08:34 36.1 °F /  2.3 °C 35.1 °F /  1.7 °C 30.3in /  1024.7hPa Calm   1mph /  1.6km/h 96% 0in /  0.0mm 12 W/m2
08:39 36.1 °F /  2.3 °C 35.1 °F /  1.7 °C 30.3in /  1024.7hPa Calm     96% 0in /  0.0mm 12 W/m2
08:44 36.1 °F /  2.3 °C 35.1 °F /  1.7 °C 30.3in /  1024.7hPa Calm     96% 0in /  0.0mm 14 W/m2
08:49 36.1 °F /  2.3 °C 35.1 °F /  1.7 °C 30.3in /  1024.7hPa Calm     96% 0in /  0.0mm 16 W/m2
08:54 36.1 °F /  2.3 °C 35.1 °F /  1.7 °C 30.3in /  1024.7hPa Calm     96% 0in /  0.0mm 18 W/m2
08:59 36.1 °F /  2.3 °C 35.4 °F /  1.9 °C 30.3in /  1024.7hPa Calm     97% 0in /  0.0mm 18 W/m2
09:04 36.1 °F /  2.3 °C 35.1 °F /  1.7 °C 30.3in /  1024.7hPa Calm     96% 0in /  0.0mm 30 W/m2
09:09 36.1 °F /  2.3 °C 35.1 °F /  1.7 °C 30.3in /  1025.1hPa Calm     96% 0in /  0.0mm 79 W/m2
09:14 36.3 °F /  2.4 °C 35.2 °F /  1.8 °C 30.3in /  1025.1hPa Calm     96% 0in /  0.0mm 91 W/m2
09:19 36.7 °F /  2.6 °C 36 °F /  2.2 °C 30.3in /  1025.1hPa Calm     97% 0in /  0.0mm 102 W/m2
09:24 36.7 °F /  2.6 °C 36 °F /  2.2 °C 30.3in /  1025.1hPa Calm     97% 0in /  0.0mm 30 W/m2
09:29 36.9 °F /  2.7 °C 36.1 °F /  2.3 °C 30.3in /  1025.1hPa Calm     97% 0in /  0.0mm 23 W/m2
09:34 36.7 °F /  2.6 °C 36 °F /  2.2 °C 30.3in /  1025.1hPa Calm     97% 0in /  0.0mm 25 W/m2
09:39 36.7 °F /  2.6 °C 36 °F /  2.2 °C 30.3in /  1025.1hPa Calm     97% 0in /  0.0mm 25 W/m2
09:44 36.9 °F /  2.7 °C 36.1 °F /  2.3 °C 30.3in /  1025.1hPa SE 1mph /  1.6km/h 1mph /  1.6km/h 97% 0in /  0.0mm 44 W/m2
09:49 37 °F /  2.8 °C 36.3 °F /  2.4 °C 30.3in /  1025.1hPa Calm     97% 0in /  0.0mm 30 W/m2
09:54 37.6 °F /  3.1 °C 36.9 °F /  2.7 °C 30.3in /  1025.1hPa Calm   4mph /  6.4km/h 97% 0in /  0.0mm 185 W/m2
09:59 37.9 °F /  3.3 °C 37.2 °F /  2.9 °C 30.3in /  1025.1hPa Calm   3mph /  4.8km/h 97% 0in /  0.0mm 209 W/m2
10:04 38.5 °F /  3.6 °C 37.8 °F /  3.2 °C 30.3in /  1025.1hPa Calm   2mph /  3.2km/h 97% 0in /  0.0mm 220 W/m2
10:09 38.8 °F /  3.8 °C 38.1 °F /  3.4 °C 30.3in /  1025.1hPa ESE 0.9mph /  1.4km/h 2mph /  3.2km/h 97% 0in /  0.0mm 232 W/m2
10:14 39 °F /  3.9 °C 38.3 °F /  3.5 °C 30.3in /  1025.1hPa ESE 2mph /  3.2km/h 2mph /  3.2km/h 97% 0in /  0.0mm 244 W/m2
10:19 39.6 °F /  4.2 °C 38.8 °F /  3.8 °C 30.3in /  1025.1hPa East 2mph /  3.2km/h 3mph /  4.8km/h 97% 0in /  0.0mm 251 W/m2
10:24 39.6 °F /  4.2 °C 38.8 °F /  3.8 °C 30.3in /  1025.1hPa Calm   2mph /  3.2km/h 97% 0in /  0.0mm 107 W/m2
10:29 39.6 °F /  4.2 °C 38.8 °F /  3.8 °C 30.3in /  1025.1hPa ENE 2.9mph /  4.7km/h 3mph /  4.8km/h 97% 0in /  0.0mm 65 W/m2
10:34 39.6 °F /  4.2 °C 38.8 °F /  3.8 °C 30.3in /  1025.1hPa East 0.9mph /  1.4km/h 2mph /  3.2km/h 97% 0in /  0.0mm 264 W/m2
10:39 39.7 °F /  4.3 °C 39 °F /  3.9 °C 30.3in /  1025.1hPa NE 0.9mph /  1.4km/h 3mph /  4.8km/h 97% 0in /  0.0mm 236 W/m2
10:44 39.9 °F /  4.4 °C 39.2 °F /  4 °C 30.3in /  1025.1hPa NE 0.9mph /  1.4km/h 3mph /  4.8km/h 97% 0in /  0.0mm 169 W/m2
10:49 40.3 °F /  4.6 °C 39.6 °F /  4.2 °C 30.3in /  1025.1hPa NE 0.9mph /  1.4km/h 2mph /  3.2km/h 97% 0in /  0.0mm 47 W/m2
10:54 40.3 °F /  4.6 °C 39.6 °F /  4.2 °C 30.3in /  1025.1hPa Calm   3mph /  4.8km/h 97% 0in /  0.0mm 37 W/m2
10:59 40.3 °F /  4.6 °C 39.2 °F /  4 °C 30.3in /  1025.1hPa Calm   2mph /  3.2km/h 96% 0in /  0.0mm 35 W/m2
11:04 40.5 °F /  4.7 °C 39.4 °F /  4.1 °C 30.3in /  1025.1hPa NW 0.9mph /  1.4km/h 2mph /  3.2km/h 96% 0in /  0.0mm 33 W/m2
11:09 40.5 °F /  4.7 °C 39.4 °F /  4.1 °C 30.3in /  1025.1hPa Calm     96% 0in /  0.0mm 35 W/m2
11:14 40.5 °F /  4.7 °C 39.2 °F /  4 °C 30.3in /  1025.1hPa Calm     95% 0in /  0.0mm 33 W/m2
11:19 40.6 °F /  4.8 °C 39.4 °F /  4.1 °C 30.3in /  1024.7hPa Calm     95% 0in /  0.0mm 32 W/m2
11:24 40.8 °F /  4.9 °C 39.6 °F /  4.2 °C 30.3in /  1024.7hPa East 2mph /  3.2km/h 4mph /  6.4km/h 95% 0in /  0.0mm 32 W/m2
11:29 41.5 °F /  5.3 °C 40.3 °F /  4.6 °C 30.3in /  1024.7hPa ESE 0.9mph /  1.4km/h 4mph /  6.4km/h 95% 0in /  0.0mm 32 W/m2
11:34 42.3 °F /  5.7 °C 40.6 °F /  4.8 °C 30.3in /  1024.7hPa NE 2.9mph /  4.7km/h 4mph /  6.4km/h 94% 0in /  0.0mm 37 W/m2
11:39 42.8 °F /  6 °C 41 °F /  5 °C 30.3in /  1024.7hPa ESE 0.9mph /  1.4km/h 3mph /  4.8km/h 93% 0in /  0.0mm 32 W/m2
11:44 43.2 °F /  6.2 °C 41 °F /  5 °C 30.3in /  1025.1hPa Calm   3mph /  4.8km/h 92% 0in /  0.0mm 33 W/m2
11:49 43.3 °F /  6.3 °C 40.8 °F /  4.9 °C 30.3in /  1025.1hPa ENE 2.9mph /  4.7km/h 4mph /  6.4km/h 91% 0in /  0.0mm 33 W/m2
11:54 43.7 °F /  6.5 °C 41.2 °F /  5.1 °C 30.3in /  1025.1hPa ENE 0.9mph /  1.4km/h 6mph /  9.7km/h 91% 0in /  0.0mm 33 W/m2
12:00 44.2 °F /  6.8 °C 41.2 °F /  5.1 °C 30.3in /  1024.7hPa NE 0.9mph /  1.4km/h 3mph /  4.8km/h 89% 0in /  0.0mm 33 W/m2
12:05 44.4 °F /  6.9 °C 41.2 °F /  5.1 °C 30.3in /  1024.7hPa SE 4.9mph /  7.9km/h 6mph /  9.7km/h 88% 0in /  0.0mm 33 W/m2
12:10 45 °F /  7.2 °C 41.5 °F /  5.3 °C 30.3in /  1024.7hPa SE 2mph /  3.2km/h 4mph /  6.4km/h 88% 0in /  0.0mm 33 W/m2
12:15 45 °F /  7.2 °C 41.4 °F /  5.2 °C 30.3in /  1024.7hPa Calm   6mph /  9.7km/h 87% 0in /  0.0mm 33 W/m2
12:20 45.1 °F /  7.3 °C 41.5 °F /  5.3 °C 30.3in /  1024.7hPa ESE 0.9mph /  1.4km/h 4mph /  6.4km/h 87% 0in /  0.0mm 33 W/m2
12:25 45.3 °F /  7.4 °C 41.4 °F /  5.2 °C 30.3in /  1024.7hPa ESE 0.9mph /  1.4km/h 8mph /  12.9km/h 86% 0in /  0.0mm 46 W/m2
12:30 45.7 °F /  7.6 °C 41.7 °F /  5.4 °C 30.3in /  1024.4hPa South 2.9mph /  4.7km/h 4mph /  6.4km/h 86% 0in /  0.0mm 39 W/m2
12:35 46 °F /  7.8 °C 41.7 °F /  5.4 °C 30.3in /  1024.4hPa ESE 4mph /  6.4km/h 5mph /  8km/h 85% 0in /  0.0mm 83 W/m2
12:40 46.4 °F /  8 °C 41.9 °F /  5.5 °C 30.3in /  1024.4hPa ESE 0.9mph /  1.4km/h 6mph /  9.7km/h 84% 0in /  0.0mm 186 W/m2
12:45 46.8 °F /  8.2 °C 42.3 °F /  5.7 °C 30.3in /  1024.4hPa Calm   4mph /  6.4km/h 84% 0in /  0.0mm 216 W/m2
12:50 47.1 °F /  8.4 °C 42.6 °F /  5.9 °C 30.3in /  1024.4hPa Calm   2mph /  3.2km/h 84% 0in /  0.0mm 295 W/m2
12:55 47.7 °F /  8.7 °C 42.8 °F /  6 °C 30.3in /  1024.4hPa ESE 4mph /  6.4km/h 6mph /  9.7km/h 83% 0in /  0.0mm 114 W/m2
13:00 47.8 °F /  8.8 °C 42.3 °F /  5.7 °C 30.3in /  1024.4hPa SE 2.9mph /  4.7km/h 7mph /  11.3km/h 81% 0in /  0.0mm 37 W/m2
13:05 48 °F /  8.9 °C 42.4 °F /  5.8 °C 30.3in /  1024.4hPa ESE 4mph /  6.4km/h 7mph /  11.3km/h 81% 0in /  0.0mm 42 W/m2
13:10 48 °F /  8.9 °C 42.4 °F /  5.8 °C 30.3in /  1024.4hPa Calm   2mph /  3.2km/h 81% 0in /  0.0mm 46 W/m2
13:15 48.4 °F /  9.1 °C 42.8 °F /  6 °C 30.2in /  1024.0hPa NNW 0.9mph /  1.4km/h 7mph /  11.3km/h 81% 0in /  0.0mm 77 W/m2
13:20 48.6 °F /  9.2 °C 42.6 °F /  5.9 °C 30.2in /  1024.0hPa ESE 2mph /  3.2km/h 6mph /  9.7km/h 80% 0in /  0.0mm 42 W/m2
13:25 48.6 °F /  9.2 °C 42.6 °F /  5.9 °C 30.2in /  1024.0hPa SE 2mph /  3.2km/h 3mph /  4.8km/h 80% 0in /  0.0mm 35 W/m2
13:30 48.7 °F /  9.3 °C 42.8 °F /  6 °C 30.2in /  1024.0hPa ESE 0.9mph /  1.4km/h 6mph /  9.7km/h 80% 0in /  0.0mm 33 W/m2
13:35 48.9 °F /  9.4 °C 43 °F /  6.1 °C 30.2in /  1024.0hPa ESE 0.9mph /  1.4km/h 3mph /  4.8km/h 80% 0in /  0.0mm 35 W/m2
13:40 49.1 °F /  9.5 °C 43.2 °F /  6.2 °C 30.2in /  1023.7hPa NE 0.9mph /  1.4km/h 4mph /  6.4km/h 80% 0in /  0.0mm 33 W/m2
13:45 49.3 °F /  9.6 °C 43.3 °F /  6.3 °C 30.2in /  1023.7hPa NE 0.9mph /  1.4km/h 4mph /  6.4km/h 80% 0in /  0.0mm 65 W/m2
13:50 49.6 °F /  9.8 °C 43.7 °F /  6.5 °C 30.2in /  1023.7hPa Calm   1mph /  1.6km/h 80% 0in /  0.0mm 35 W/m2
13:55 49.6 °F /  9.8 °C 44.1 °F /  6.7 °C 30.2in /  1023.7hPa East 0.9mph /  1.4km/h 2mph /  3.2km/h 81% 0in /  0.0mm 35 W/m2
14:00 49.8 °F /  9.9 °C 43.9 °F /  6.6 °C 30.2in /  1023.7hPa Calm   4mph /  6.4km/h 80% 0in /  0.0mm 35 W/m2
14:05 50.2 °F /  10.1 °C 44.2 °F /  6.8 °C 30.2in /  1023.7hPa Calm   4mph /  6.4km/h 80% 0in /  0.0mm 35 W/m2
14:10 50.4 °F /  10.2 °C 44.1 °F /  6.7 °C 30.2in /  1023.7hPa Calm   3mph /  4.8km/h 79% 0in /  0.0mm 60 W/m2
14:15 50.5 °F /  10.3 °C 43.9 °F /  6.6 °C 30.2in /  1023.4hPa SSE 2.9mph /  4.7km/h 7mph /  11.3km/h 78% 0in /  0.0mm 46 W/m2
14:20 51.1 °F /  10.6 °C 44.4 °F /  6.9 °C 30.2in /  1023.4hPa East 2mph /  3.2km/h 9mph /  14.5km/h 78% 0in /  0.0mm 58 W/m2
14:25 51.3 °F /  10.7 °C 44.2 °F /  6.8 °C 30.2in /  1023.4hPa WSW 2mph /  3.2km/h 3mph /  4.8km/h 77% 0in /  0.0mm 67 W/m2
14:30 51.4 °F /  10.8 °C 44.4 °F /  6.9 °C 30.2in /  1023.4hPa ESE 0.9mph /  1.4km/h 9mph /  14.5km/h 77% 0in /  0.0mm 56 W/m2
14:35 51.6 °F /  10.9 °C 44.2 °F /  6.8 °C 30.2in /  1023.4hPa Calm   2mph /  3.2km/h 76% 0in /  0.0mm 35 W/m2
14:40 51.8 °F /  11 °C 44.4 °F /  6.9 °C 30.2in /  1023.4hPa Calm   1mph /  1.6km/h 76% 0in /  0.0mm 37 W/m2
14:45 52 °F /  11.1 °C 44.6 °F /  7 °C 30.2in /  1023.4hPa Calm   2mph /  3.2km/h 76% 0in /  0.0mm 33 W/m2
14:50 52 °F /  11.1 °C 44.6 °F /  7 °C 30.2in /  1023.4hPa East 2mph /  3.2km/h 3mph /  4.8km/h 76% 0in /  0.0mm 54 W/m2
14:55 52.2 °F /  11.2 °C 44.8 °F /  7.1 °C 30.2in /  1023.0hPa East 2mph /  3.2km/h 3mph /  4.8km/h 76% 0in /  0.0mm 32 W/m2
15:00 52.2 °F /  11.2 °C 44.8 °F /  7.1 °C 30.2in /  1023.0hPa ENE 0.9mph /  1.4km/h 2mph /  3.2km/h 76% 0in /  0.0mm 32 W/m2
15:05 52.2 °F /  11.2 °C 44.8 °F /  7.1 °C 30.2in /  1023.0hPa SE 0.9mph /  1.4km/h 4mph /  6.4km/h 76% 0in /  0.0mm 32 W/m2
15:10 52.2 °F /  11.2 °C 44.8 °F /  7.1 °C 30.2in /  1023.0hPa Calm   2mph /  3.2km/h 76% 0in /  0.0mm 32 W/m2
15:15 52.2 °F /  11.2 °C 44.8 °F /  7.1 °C 30.2in /  1023.0hPa ENE 0.9mph /  1.4km/h 3mph /  4.8km/h 76% 0in /  0.0mm 32 W/m2
15:20 52.2 °F /  11.2 °C 44.8 °F /  7.1 °C 30.2in /  1023.0hPa ESE 0.9mph /  1.4km/h 2mph /  3.2km/h 76% 0in /  0.0mm 32 W/m2
15:25 52.3 °F /  11.3 °C 45 °F /  7.2 °C 30.2in /  1022.7hPa Calm   3mph /  4.8km/h 76% 0in /  0.0mm 32 W/m2
15:30 52.3 °F /  11.3 °C 45 °F /  7.2 °C 30.2in /  1022.7hPa ENE 0.9mph /  1.4km/h 5mph /  8km/h 76% 0in /  0.0mm 35 W/m2
15:35 52.5 °F /  11.4 °C 45.9 °F /  7.7 °C 30.2in /  1022.7hPa Calm     78% 0in /  0.0mm 32 W/m2
15:40 52.3 °F /  11.3 °C 45.7 °F /  7.6 °C 30.2in /  1022.7hPa ENE 0.9mph /  1.4km/h 3mph /  4.8km/h 78% 0in /  0.0mm 35 W/m2
15:45 52.3 °F /  11.3 °C 45.7 °F /  7.6 °C 30.2in /  1022.7hPa ENE 4mph /  6.4km/h 4mph /  6.4km/h 78% 0in /  0.0mm 30 W/m2
15:50 52.3 °F /  11.3 °C 45.7 °F /  7.6 °C 30.2in /  1022.7hPa Calm   3mph /  4.8km/h 78% 0in /  0.0mm 30 W/m2
15:55 52.3 °F /  11.3 °C 45.7 °F /  7.6 °C 30.2in /  1022.4hPa Calm   2mph /  3.2km/h 78% 0in /  0.0mm 30 W/m2
16:01 52.3 °F /  11.3 °C 45.7 °F /  7.6 °C 30.2in /  1022.4hPa ESE 2mph /  3.2km/h 3mph /  4.8km/h 78% 0in /  0.0mm 30 W/m2
16:06 52.5 °F /  11.4 °C 45.9 °F /  7.7 °C 30.2in /  1022.4hPa East 2mph /  3.2km/h 4mph /  6.4km/h 78% 0in /  0.0mm 30 W/m2
16:11 52.5 °F /  11.4 °C 45.5 °F /  7.5 °C 30.2in /  1022.4hPa Calm   2mph /  3.2km/h 77% 0in /  0.0mm 30 W/m2
16:16 52.7 °F /  11.5 °C 46 °F /  7.8 °C 30.2in /  1022.4hPa East 2.9mph /  4.7km/h 3mph /  4.8km/h 78% 0in /  0.0mm 28 W/m2
16:21 52.5 °F /  11.4 °C 45.9 °F /  7.7 °C 30.2in /  1022.4hPa ESE 2mph /  3.2km/h 6mph /  9.7km/h 78% 0in /  0.0mm 28 W/m2
16:26 52.5 °F /  11.4 °C 45.9 °F /  7.7 °C 30.2in /  1022.4hPa Calm   2mph /  3.2km/h 78% 0in /  0.0mm 28 W/m2
16:31 52.5 °F /  11.4 °C 46.2 °F /  7.9 °C 30.2in /  1022.4hPa Calm   6mph /  9.7km/h 79% 0in /  0.0mm 26 W/m2
16:36 52.3 °F /  11.3 °C 46.4 °F /  8 °C 30.2in /  1022.4hPa SW 0.9mph /  1.4km/h 1mph /  1.6km/h 80% 0in /  0.0mm 26 W/m2
16:41 52.2 °F /  11.2 °C 46.6 °F /  8.1 °C 30.2in /  1022.4hPa Calm   2mph /  3.2km/h 81% 0in /  0.0mm 26 W/m2
16:46 51.8 °F /  11 °C 46.2 °F /  7.9 °C 30.2in /  1022.4hPa Calm     81% 0in /  0.0mm 25 W/m2
16:51 51.4 °F /  10.8 °C 46.2 °F /  7.9 °C 30.2in /  1022.4hPa Calm   2mph /  3.2km/h 82% 0in /  0.0mm 25 W/m2
16:56 51.3 °F /  10.7 °C 46.2 °F /  7.9 °C 30.2in /  1022.4hPa Calm     83% 0in /  0.0mm 25 W/m2
17:01 51.1 °F /  10.6 °C 46 °F /  7.8 °C 30.2in /  1022.4hPa Calm   2mph /  3.2km/h 83% 0in /  0.0mm 23 W/m2
17:06 50.7 °F /  10.4 °C 46 °F /  7.8 °C 30.2in /  1022.0hPa Calm     84% 0in /  0.0mm 21 W/m2
17:11 50.4 °F /  10.2 °C 45.7 °F /  7.6 °C 30.2in /  1022.0hPa Calm   1mph /  1.6km/h 84% 0in /  0.0mm 21 W/m2
17:16 50.2 °F /  10.1 °C 45.5 °F /  7.5 °C 30.2in /  1022.0hPa Calm   1mph /  1.6km/h 84% 0in /  0.0mm 21 W/m2
17:21 49.8 °F /  9.9 °C 45.5 °F /  7.5 °C 30.2in /  1022.0hPa Calm     85% 0in /  0.0mm 19 W/m2
17:26 49.5 °F /  9.7 °C 45.5 °F /  7.5 °C 30.2in /  1022.0hPa South 0.9mph /  1.4km/h 1mph /  1.6km/h 86% 0in /  0.0mm 19 W/m2
17:31 49.3 °F /  9.6 °C 45.3 °F /  7.4 °C 30.2in /  1021.7hPa Calm     86% 0in /  0.0mm 18 W/m2
17:36 48.9 °F /  9.4 °C 45.1 °F /  7.3 °C 30.2in /  1021.7hPa Calm   1mph /  1.6km/h 87% 0in /  0.0mm 18 W/m2
17:41 48.7 °F /  9.3 °C 45 °F /  7.2 °C 30.2in /  1021.7hPa Calm     87% 0in /  0.0mm 16 W/m2
17:46 48.6 °F /  9.2 °C 44.8 °F /  7.1 °C 30.2in /  1021.7hPa Calm   1mph /  1.6km/h 87% 0in /  0.0mm 16 W/m2
17:51 48.4 °F /  9.1 °C 45 °F /  7.2 °C 30.2in /  1021.7hPa Calm     88% 0in /  0.0mm 14 W/m2
17:56 48 °F /  8.9 °C 44.6 °F /  7 °C 30.2in /  1021.7hPa Calm     88% 0in /  0.0mm 14 W/m2
18:01 47.8 °F /  8.8 °C 44.8 °F /  7.1 °C 30.2in /  1021.7hPa Calm     89% 0in /  0.0mm 12 W/m2
18:06 47.7 °F /  8.7 °C 44.6 °F /  7 °C 30.2in /  1021.7hPa Calm     89% 0in /  0.0mm 12 W/m2
18:11 47.7 °F /  8.7 °C 44.6 °F /  7 °C 30.2in /  1021.7hPa Calm     89% 0in /  0.0mm 11 W/m2
18:16 47.5 °F /  8.6 °C 44.8 °F /  7.1 °C 30.2in /  1021.7hPa Calm     90% 0in /  0.0mm 9 W/m2
18:21 47.5 °F /  8.6 °C 44.8 °F /  7.1 °C 30.2in /  1021.7hPa South 2mph /  3.2km/h 2mph /  3.2km/h 90% 0in /  0.0mm 7 W/m2
18:26 47.1 °F /  8.4 °C 44.4 °F /  6.9 °C 30.2in /  1021.3hPa Calm     90% 0in /  0.0mm 5 W/m2
18:31 46.9 °F /  8.3 °C 44.2 °F /  6.8 °C 30.2in /  1021.3hPa Calm     90% 0in /  0.0mm 0 W/m2
18:36 46.9 °F /  8.3 °C 44.2 °F /  6.8 °C 30.2in /  1021.3hPa Calm     90% 0in /  0.0mm 0 W/m2
18:41 46.8 °F /  8.2 °C 44.2 °F /  6.8 °C 30.2in /  1021.7hPa Calm     91% 0in /  0.0mm 0 W/m2
18:46 46.6 °F /  8.1 °C 44.1 °F /  6.7 °C 30.2in /  1021.7hPa Calm     91% 0in /  0.0mm 0 W/m2
18:51 46.4 °F /  8 °C 43.9 °F /  6.6 °C 30.2in /  1021.3hPa Calm     91% 0in /  0.0mm 0 W/m2
18:56 46.2 °F /  7.9 °C 43.7 °F /  6.5 °C 30.2in /  1021.3hPa Calm     91% 0in /  0.0mm 0 W/m2
19:01 46 °F /  7.8 °C 43.5 °F /  6.4 °C 30.2in /  1021.7hPa Calm     91% 0in /  0.0mm 0 W/m2
19:06 46 °F /  7.8 °C 43.9 °F /  6.6 °C 30.2in /  1021.7hPa Calm     92% 0in /  0.0mm 0 W/m2
19:11 45.9 °F /  7.7 °C 43.7 °F /  6.5 °C 30.2in /  1021.7hPa Calm     92% 0in /  0.0mm 0 W/m2
19:16 45.7 °F /  7.6 °C 43.5 °F /  6.4 °C 30.2in /  1021.7hPa Calm     92% 0in /  0.0mm 0 W/m2
19:21 45.3 °F /  7.4 °C 43.2 °F /  6.2 °C 30.2in /  1021.7hPa Calm     92% 0in /  0.0mm 0 W/m2
19:26 45.1 °F /  7.3 °C 43 °F /  6.1 °C 30.2in /  1021.7hPa Calm     92% 0in /  0.0mm 0 W/m2
19:31 45 °F /  7.2 °C 42.8 °F /  6 °C 30.2in /  1021.7hPa Calm     92% 0in /  0.0mm 0 W/m2
19:36 45 °F /  7.2 °C 43 °F /  6.1 °C 30.2in /  1022.0hPa Calm     93% 0in /  0.0mm 0 W/m2
19:41 45 °F /  7.2 °C 43 °F /  6.1 °C 30.2in /  1022.0hPa Calm     93% 0in /  0.0mm 0 W/m2
19:46 44.8 °F /  7.1 °C 42.8 °F /  6 °C 30.2in /  1021.7hPa Calm     93% 0in /  0.0mm 0 W/m2
19:51 44.6 °F /  7 °C 42.6 °F /  5.9 °C 30.2in /  1022.0hPa Calm     93% 0in /  0.0mm 0 W/m2
19:56 44.4 °F /  6.9 °C 42.4 °F /  5.8 °C 30.2in /  1022.0hPa Calm     93% 0in /  0.0mm 0 W/m2
20:01 44.2 °F /  6.8 °C 42.3 °F /  5.7 °C 30.2in /  1021.7hPa Calm     93% 0in /  0.0mm 0 W/m2
20:06 44.1 °F /  6.7 °C 42.1 °F /  5.6 °C 30.2in /  1021.7hPa Calm     93% 0in /  0.0mm 0 W/m2
20:11 43.9 °F /  6.6 °C 41.9 °F /  5.5 °C 30.2in /  1021.7hPa Calm     93% 0in /  0.0mm 0 W/m2
20:16 43.9 °F /  6.6 °C 41.9 °F /  5.5 °C 30.2in /  1021.7hPa Calm     93% 0in /  0.0mm 0 W/m2
20:21 43.7 °F /  6.5 °C 41.7 °F /  5.4 °C 30.2in /  1021.7hPa Calm     93% 0in /  0.0mm 0 W/m2
20:26 43.5 °F /  6.4 °C 41.9 °F /  5.5 °C 30.2in /  1021.7hPa Calm     94% 0in /  0.0mm 0 W/m2
20:31 43.3 °F /  6.3 °C 41.7 °F /  5.4 °C 30.2in /  1021.7hPa Calm     94% 0in /  0.0mm 0 W/m2
20:36 43.2 °F /  6.2 °C 41.5 °F /  5.3 °C 30.2in /  1021.7hPa Calm     94% 0in /  0.0mm 0 W/m2
20:41 43.2 °F /  6.2 °C 41.5 °F /  5.3 °C 30.2in /  1021.7hPa Calm     94% 0in /  0.0mm 0 W/m2
20:46 43 °F /  6.1 °C 41.4 °F /  5.2 °C 30.2in /  1021.7hPa Calm     94% 0in /  0.0mm 0 W/m2
20:51 42.6 °F /  5.9 °C 41 °F /  5 °C 30.2in /  1021.7hPa Calm     94% 0in /  0.0mm 0 W/m2
20:56 42.6 °F /  5.9 °C 41 °F /  5 °C 30.2in /  1021.7hPa Calm     94% 0in /  0.0mm 0 W/m2
21:01 42.4 °F /  5.8 °C 40.8 °F /  4.9 °C 30.2in /  1021.7hPa Calm     94% 0in /  0.0mm 0 W/m2
21:06 42.3 °F /  5.7 °C 40.6 °F /  4.8 °C 30.2in /  1021.7hPa Calm     94% 0in /  0.0mm 0 W/m2
21:12 42.3 °F /  5.7 °C 40.6 °F /  4.8 °C 30.2in /  1021.3hPa Calm     94% 0in /  0.0mm 0 W/m2
21:17 42.3 °F /  5.7 °C 40.6 °F /  4.8 °C 30.2in /  1021.7hPa Calm     94% 0in /  0.0mm 0 W/m2
21:22 42.1 °F /  5.6 °C 40.8 °F /  4.9 °C 30.2in /  1021.7hPa Calm     95% 0in /  0.0mm 0 W/m2
21:27 42.1 °F /  5.6 °C 40.8 °F /  4.9 °C 30.2in /  1021.3hPa Calm     95% 0in /  0.0mm 0 W/m2
21:32 42.1 °F /  5.6 °C 40.8 °F /  4.9 °C 30.2in /  1021.3hPa Calm     95% 0in /  0.0mm 0 W/m2
21:37 41.9 °F /  5.5 °C 40.6 °F /  4.8 °C 30.2in /  1021.3hPa Calm     95% 0in /  0.0mm 0 W/m2
21:42 41.7 °F /  5.4 °C 40.5 °F /  4.7 °C 30.2in /  1021.3hPa Calm     95% 0in /  0.0mm 0 W/m2
21:47 41.5 °F /  5.3 °C 40.3 °F /  4.6 °C 30.2in /  1021.3hPa Calm     95% 0in /  0.0mm 0 W/m2
21:52 41.5 °F /  5.3 °C 40.3 °F /  4.6 °C 30.2in /  1021.3hPa Calm     95% 0in /  0.0mm 0 W/m2
21:57 41.4 °F /  5.2 °C 40.1 °F /  4.5 °C 30.2in /  1021.3hPa Calm     95% 0in /  0.0mm 0 W/m2
22:02 41.2 °F /  5.1 °C 39.9 °F /  4.4 °C 30.2in /  1021.3hPa Calm     95% 0in /  0.0mm 0 W/m2
22:07 41.2 °F /  5.1 °C 39.9 °F /  4.4 °C 30.2in /  1021.3hPa Calm     95% 0in /  0.0mm 0 W/m2
22:12 40.8 °F /  4.9 °C 39.6 °F /  4.2 °C 30.2in /  1021.3hPa Calm     95% 0in /  0.0mm 0 W/m2
22:17 40.8 °F /  4.9 °C 39.6 °F /  4.2 °C 30.2in /  1021.3hPa Calm     95% 0in /  0.0mm 0 W/m2
22:22 40.6 °F /  4.8 °C 39.4 °F /  4.1 °C 30.2in /  1021.3hPa Calm     95% 0in /  0.0mm 0 W/m2
22:27 40.6 °F /  4.8 °C 39.4 °F /  4.1 °C 30.2in /  1021.3hPa Calm     95% 0in /  0.0mm 0 W/m2
22:32 40.6 °F /  4.8 °C 39.4 °F /  4.1 °C 30.2in /  1021.3hPa Calm     95% 0in /  0.0mm 0 W/m2
22:37 40.5 °F /  4.7 °C 39.2 °F /  4 °C 30.2in /  1021.3hPa Calm     95% 0in /  0.0mm 0 W/m2
22:42 40.5 °F /  4.7 °C 39.2 °F /  4 °C 30.2in /  1021.3hPa Calm     95% 0in /  0.0mm 0 W/m2
22:47 40.3 °F /  4.6 °C 39 °F /  3.9 °C 30.2in /  1021.3hPa Calm     95% 0in /  0.0mm 0 W/m2
22:52 40.1 °F /  4.5 °C 38.8 °F /  3.8 °C 30.2in /  1021.3hPa Calm     95% 0in /  0.0mm 0 W/m2
22:57 39.9 °F /  4.4 °C 38.7 °F /  3.7 °C 30.2in /  1021.3hPa Calm     95% 0in /  0.0mm 0 W/m2
23:02 39.9 °F /  4.4 °C 38.7 °F /  3.7 °C 30.2in /  1021.3hPa Calm     95% 0in /  0.0mm 0 W/m2
23:07 39.7 °F /  4.3 °C 38.5 °F /  3.6 °C 30.2in /  1021.7hPa Calm     95% 0in /  0.0mm 0 W/m2
23:12 39.7 °F /  4.3 °C 38.5 °F /  3.6 °C 30.2in /  1021.7hPa Calm     95% 0in /  0.0mm 0 W/m2
23:17 39.7 °F /  4.3 °C 38.5 °F /  3.6 °C 30.2in /  1021.7hPa Calm     95% 0in /  0.0mm 0 W/m2
23:22 39.6 °F /  4.2 °C 38.3 °F /  3.5 °C 30.2in /  1021.7hPa Calm     95% 0in /  0.0mm 0 W/m2
23:27 39.6 °F /  4.2 °C 38.3 °F /  3.5 °C 30.2in /  1021.7hPa Calm     95% 0in /  0.0mm 0 W/m2
23:32 39.4 °F /  4.1 °C 38.1 °F /  3.4 °C 30.2in /  1021.7hPa Calm     95% 0in /  0.0mm 0 W/m2
23:37 39 °F /  3.9 °C 37.8 °F /  3.2 °C 30.2in /  1021.7hPa Calm     95% 0in /  0.0mm 0 W/m2
23:42 39 °F /  3.9 °C 37.8 °F /  3.2 °C 30.2in /  1021.7hPa Calm     95% 0in /  0.0mm 0 W/m2
23:47 38.8 °F /  3.8 °C 37.6 °F /  3.1 °C 30.2in /  1021.3hPa Calm     95% 0in /  0.0mm 0 W/m2
23:52 38.8 °F /  3.8 °C 37.6 °F /  3.1 °C 30.2in /  1021.7hPa Calm     95% 0in /  0.0mm 0 W/m2
23:57 38.7 °F /  3.7 °C 37.4 °F /  3 °C 30.2in /  1021.7hPa Calm     95% 0in /  0.0mm 0 W/m2
Juneau County Weather
Compliments of Weather Underground - 4 mb